sensor_id;sensor_type;location;lat;lon;timestamp;pressure;altitude;pressure_sealevel;temperature;humidity
84108;BME280;74203;50.730;1.626;2024-01-30T00:02:04;101362.22;;;10.94;80.17
84108;BME280;74203;50.730;1.626;2024-01-30T00:04:12;101364.00;;;11.02;79.78
84108;BME280;74203;50.730;1.626;2024-01-30T00:06:20;101361.38;;;10.93;79.69
84108;BME280;74203;50.730;1.626;2024-01-30T00:08:28;101355.50;;;10.90;80.22
84108;BME280;74203;50.730;1.626;2024-01-30T00:10:36;101351.91;;;10.98;80.09
84108;BME280;74203;50.730;1.626;2024-01-30T00:12:43;101354.75;;;10.96;79.94
84108;BME280;74203;50.730;1.626;2024-01-30T00:14:51;101360.00;;;10.98;79.92
84108;BME280;74203;50.730;1.626;2024-01-30T00:16:58;101348.22;;;10.90;80.03
84108;BME280;74203;50.730;1.626;2024-01-30T00:19:05;101341.63;;;10.93;79.90
84108;BME280;74203;50.730;1.626;2024-01-30T00:21:13;101348.16;;;10.99;79.87
84108;BME280;74203;50.730;1.626;2024-01-30T00:23:20;101336.44;;;10.91;80.01
84108;BME280;74203;50.730;1.626;2024-01-30T00:25:27;101335.28;;;11.01;79.74
84108;BME280;74203;50.730;1.626;2024-01-30T00:27:35;101341.91;;;11.13;79.20
84108;BME280;74203;50.730;1.626;2024-01-30T00:29:42;101336.50;;;11.13;79.29
84108;BME280;74203;50.730;1.626;2024-01-30T00:31:49;101331.66;;;11.08;79.17
84108;BME280;74203;50.730;1.626;2024-01-30T00:33:57;101326.47;;;10.92;79.80
84108;BME280;74203;50.730;1.626;2024-01-30T00:36:05;101324.87;;;10.98;79.71
84108;BME280;74203;50.730;1.626;2024-01-30T00:38:12;101320.84;;;11.08;79.40
84108;BME280;74203;50.730;1.626;2024-01-30T00:40:20;101319.25;;;11.14;79.05
84108;BME280;74203;50.730;1.626;2024-01-30T00:42:27;101320.75;;;11.02;79.24
84108;BME280;74203;50.730;1.626;2024-01-30T00:44:37;101306.88;;;11.05;79.32
84108;BME280;74203;50.730;1.626;2024-01-30T00:46:44;101312.28;;;11.05;79.18
84108;BME280;74203;50.730;1.626;2024-01-30T00:48:52;101309.13;;;11.01;79.37
84108;BME280;74203;50.730;1.626;2024-01-30T00:50:59;101311.53;;;11.11;79.25
84108;BME280;74203;50.730;1.626;2024-01-30T00:53:06;101297.56;;;11.07;78.93
84108;BME280;74203;50.730;1.626;2024-01-30T00:55:14;101312.19;;;11.13;79.05
84108;BME280;74203;50.730;1.626;2024-01-30T00:57:21;101310.97;;;11.15;78.79
84108;BME280;74203;50.730;1.626;2024-01-30T00:59:29;101309.09;;;11.16;78.88
84108;BME280;74203;50.730;1.626;2024-01-30T01:01:36;101308.97;;;11.24;78.57
84108;BME280;74203;50.730;1.626;2024-01-30T01:03:44;101324.44;;;11.30;78.49
84108;BME280;74203;50.730;1.626;2024-01-30T01:05:51;101324.28;;;11.17;78.43
84108;BME280;74203;50.730;1.626;2024-01-30T01:07:58;101322.59;;;11.16;78.62
84108;BME280;74203;50.730;1.626;2024-01-30T01:10:07;101318.41;;;11.28;78.50
84108;BME280;74203;50.730;1.626;2024-01-30T01:12:14;101315.00;;;11.05;78.83
84108;BME280;74203;50.730;1.626;2024-01-30T01:14:21;101317.03;;;11.03;79.15
84108;BME280;74203;50.730;1.626;2024-01-30T01:16:29;101311.19;;;10.99;79.31
84108;BME280;74203;50.730;1.626;2024-01-30T01:18:36;101315.06;;;10.97;79.33
84108;BME280;74203;50.730;1.626;2024-01-30T01:20:44;101319.72;;;11.03;79.18
84108;BME280;74203;50.730;1.626;2024-01-30T01:22:51;101316.28;;;11.09;79.08
84108;BME280;74203;50.730;1.626;2024-01-30T01:24:59;101322.06;;;11.06;79.04
84108;BME280;74203;50.730;1.626;2024-01-30T01:27:07;101324.56;;;11.07;79.22
84108;BME280;74203;50.730;1.626;2024-01-30T01:29:15;101320.00;;;11.08;79.60
84108;BME280;74203;50.730;1.626;2024-01-30T01:31:22;101323.00;;;11.13;79.17
84108;BME280;74203;50.730;1.626;2024-01-30T01:33:29;101330.59;;;11.24;79.17
84108;BME280;74203;50.730;1.626;2024-01-30T01:35:37;101330.31;;;11.34;78.79
84108;BME280;74203;50.730;1.626;2024-01-30T01:37:44;101329.66;;;11.46;78.60
84108;BME280;74203;50.730;1.626;2024-01-30T01:39:52;101337.94;;;11.45;78.51
84108;BME280;74203;50.730;1.626;2024-01-30T01:41:59;101333.81;;;11.49;78.41
84108;BME280;74203;50.730;1.626;2024-01-30T01:44:07;101333.53;;;11.59;77.90
84108;BME280;74203;50.730;1.626;2024-01-30T01:46:14;101336.81;;;11.54;78.06
84108;BME280;74203;50.730;1.626;2024-01-30T01:48:23;101327.84;;;11.54;78.07
84108;BME280;74203;50.730;1.626;2024-01-30T01:50:30;101329.78;;;11.60;78.06
84108;BME280;74203;50.730;1.626;2024-01-30T01:52:39;101335.28;;;11.66;77.80
84108;BME280;74203;50.730;1.626;2024-01-30T01:54:47;101317.38;;;11.65;77.57
84108;BME280;74203;50.730;1.626;2024-01-30T01:56:56;101327.22;;;11.73;77.37
84108;BME280;74203;50.730;1.626;2024-01-30T01:59:07;101337.66;;;11.76;77.37
84108;BME280;74203;50.730;1.626;2024-01-30T02:01:16;101332.81;;;11.86;76.96
84108;BME280;74203;50.730;1.626;2024-01-30T02:03:26;101334.31;;;11.74;77.34
84108;BME280;74203;50.730;1.626;2024-01-30T02:05:34;101329.75;;;11.74;77.34
84108;BME280;74203;50.730;1.626;2024-01-30T02:07:42;101318.91;;;11.74;76.86
84108;BME280;74203;50.730;1.626;2024-01-30T02:09:50;101333.28;;;11.75;77.28
84108;BME280;74203;50.730;1.626;2024-01-30T02:11:58;101332.37;;;11.68;77.50
84108;BME280;74203;50.730;1.626;2024-01-30T02:14:07;101330.31;;;11.70;77.39
84108;BME280;74203;50.730;1.626;2024-01-30T02:16:15;101321.81;;;11.52;78.31
84108;BME280;74203;50.730;1.626;2024-01-30T02:18:23;101324.75;;;11.57;78.12
84108;BME280;74203;50.730;1.626;2024-01-30T02:20:32;101328.13;;;11.59;77.98
84108;BME280;74203;50.730;1.626;2024-01-30T02:22:43;101324.38;;;11.60;78.25
84108;BME280;74203;50.730;1.626;2024-01-30T02:24:50;101318.06;;;11.53;78.28
84108;BME280;74203;50.730;1.626;2024-01-30T02:26:58;101316.41;;;11.52;78.64
84108;BME280;74203;50.730;1.626;2024-01-30T02:29:05;101314.25;;;11.47;78.53
84108;BME280;74203;50.730;1.626;2024-01-30T02:31:12;101310.59;;;11.55;78.34
84108;BME280;74203;50.730;1.626;2024-01-30T02:33:20;101309.19;;;11.59;78.31
84108;BME280;74203;50.730;1.626;2024-01-30T02:35:27;101313.41;;;11.46;78.83
84108;BME280;74203;50.730;1.626;2024-01-30T02:37:34;101300.03;;;11.38;79.13
84108;BME280;74203;50.730;1.626;2024-01-30T02:39:42;101314.94;;;11.34;79.49
84108;BME280;74203;50.730;1.626;2024-01-30T02:41:49;101306.19;;;11.32;79.46
84108;BME280;74203;50.730;1.626;2024-01-30T02:43:57;101294.16;;;11.35;79.28
84108;BME280;74203;50.730;1.626;2024-01-30T02:46:04;101308.91;;;11.32;79.59
84108;BME280;74203;50.730;1.626;2024-01-30T02:48:12;101303.09;;;11.35;79.39
84108;BME280;74203;50.730;1.626;2024-01-30T02:50:19;101310.72;;;11.46;79.14
84108;BME280;74203;50.730;1.626;2024-01-30T02:52:26;101297.59;;;11.29;79.68
84108;BME280;74203;50.730;1.626;2024-01-30T02:54:34;101312.34;;;11.26;80.07
84108;BME280;74203;50.730;1.626;2024-01-30T02:56:41;101313.25;;;11.33;79.99
84108;BME280;74203;50.730;1.626;2024-01-30T02:58:48;101306.19;;;11.32;80.17
84108;BME280;74203;50.730;1.626;2024-01-30T03:00:56;101302.44;;;11.33;79.85
84108;BME280;74203;50.730;1.626;2024-01-30T03:03:03;101293.94;;;11.36;79.80
84108;BME280;74203;50.730;1.626;2024-01-30T03:05:11;101298.78;;;11.41;79.62
84108;BME280;74203;50.730;1.626;2024-01-30T03:07:18;101294.06;;;11.28;80.28
84108;BME280;74203;50.730;1.626;2024-01-30T03:09:26;101293.44;;;11.26;80.37
84108;BME280;74203;50.730;1.626;2024-01-30T03:11:33;101292.28;;;11.35;80.30
84108;BME280;74203;50.730;1.626;2024-01-30T03:13:41;101296.00;;;11.34;80.09
84108;BME280;74203;50.730;1.626;2024-01-30T03:15:48;101300.31;;;11.29;80.71
84108;BME280;74203;50.730;1.626;2024-01-30T03:17:56;101281.66;;;11.34;80.39
84108;BME280;74203;50.730;1.626;2024-01-30T03:20:03;101279.53;;;11.29;80.38
84108;BME280;74203;50.730;1.626;2024-01-30T03:22:11;101282.81;;;11.10;80.90
84108;BME280;74203;50.730;1.626;2024-01-30T03:24:18;101286.34;;;11.10;81.02
84108;BME280;74203;50.730;1.626;2024-01-30T03:26:26;101279.53;;;11.29;80.86
84108;BME280;74203;50.730;1.626;2024-01-30T03:28:33;101274.59;;;11.33;80.49
84108;BME280;74203;50.730;1.626;2024-01-30T03:30:41;101267.09;;;11.35;80.23
84108;BME280;74203;50.730;1.626;2024-01-30T03:32:48;101268.03;;;11.42;80.26
84108;BME280;74203;50.730;1.626;2024-01-30T03:34:55;101269.19;;;11.33;80.50
84108;BME280;74203;50.730;1.626;2024-01-30T03:37:03;101266.00;;;11.29;80.78
84108;BME280;74203;50.730;1.626;2024-01-30T03:39:10;101270.13;;;11.25;80.73
84108;BME280;74203;50.730;1.626;2024-01-30T03:41:18;101260.25;;;11.17;80.83
84108;BME280;74203;50.730;1.626;2024-01-30T03:43:25;101261.06;;;11.33;80.92
84108;BME280;74203;50.730;1.626;2024-01-30T03:45:32;101270.31;;;11.24;80.95
84108;BME280;74203;50.730;1.626;2024-01-30T03:47:40;101275.62;;;11.17;81.07
84108;BME280;74203;50.730;1.626;2024-01-30T03:49:50;101277.69;;;11.15;81.70
84108;BME280;74203;50.730;1.626;2024-01-30T03:51:57;101268.94;;;11.13;81.40
84108;BME280;74203;50.730;1.626;2024-01-30T03:54:05;101272.00;;;11.10;81.52
84108;BME280;74203;50.730;1.626;2024-01-30T03:56:12;101273.59;;;11.19;81.34
84108;BME280;74203;50.730;1.626;2024-01-30T03:58:20;101264.37;;;11.13;81.51
84108;BME280;74203;50.730;1.626;2024-01-30T04:00:27;101272.44;;;11.28;80.92
84108;BME280;74203;50.730;1.626;2024-01-30T04:02:34;101276.47;;;11.17;80.86
84108;BME280;74203;50.730;1.626;2024-01-30T04:04:42;101271.94;;;11.18;81.14
84108;BME280;74203;50.730;1.626;2024-01-30T04:06:49;101281.66;;;10.98;81.61
84108;BME280;74203;50.730;1.626;2024-01-30T04:08:56;101281.50;;;11.20;81.37
84108;BME280;74203;50.730;1.626;2024-01-30T04:11:07;101277.34;;;11.18;81.17
84108;BME280;74203;50.730;1.626;2024-01-30T04:13:15;101285.53;;;11.10;81.45
84108;BME280;74203;50.730;1.626;2024-01-30T04:15:22;101286.81;;;11.14;81.58
84108;BME280;74203;50.730;1.626;2024-01-30T04:17:30;101293.28;;;10.98;81.87
84108;BME280;74203;50.730;1.626;2024-01-30T04:19:39;101286.97;;;10.91;82.15
84108;BME280;74203;50.730;1.626;2024-01-30T04:21:47;101282.56;;;10.75;83.14
84108;BME280;74203;50.730;1.626;2024-01-30T04:23:54;101288.91;;;10.82;83.13
84108;BME280;74203;50.730;1.626;2024-01-30T04:26:02;101291.63;;;10.68;83.25
84108;BME280;74203;50.730;1.626;2024-01-30T04:28:09;101283.50;;;10.82;83.14
84108;BME280;74203;50.730;1.626;2024-01-30T04:30:17;101300.44;;;10.76;83.24
84108;BME280;74203;50.730;1.626;2024-01-30T04:32:25;101298.97;;;10.59;83.79
84108;BME280;74203;50.730;1.626;2024-01-30T04:34:32;101291.72;;;10.45;84.50
84108;BME280;74203;50.730;1.626;2024-01-30T04:36:39;101299.41;;;10.48;84.51
84108;BME280;74203;50.730;1.626;2024-01-30T04:38:47;101299.81;;;10.59;84.18
84108;BME280;74203;50.730;1.626;2024-01-30T04:40:54;101312.19;;;10.54;84.62
84108;BME280;74203;50.730;1.626;2024-01-30T04:43:01;101307.28;;;10.72;84.27
84108;BME280;74203;50.730;1.626;2024-01-30T04:45:11;101309.69;;;10.67;83.92
84108;BME280;74203;50.730;1.626;2024-01-30T04:47:19;101306.50;;;10.49;84.82
84108;BME280;74203;50.730;1.626;2024-01-30T04:49:26;101318.31;;;10.62;85.00
84108;BME280;74203;50.730;1.626;2024-01-30T04:51:34;101320.09;;;10.55;85.53
84108;BME280;74203;50.730;1.626;2024-01-30T04:53:41;101335.84;;;10.52;86.01
84108;BME280;74203;50.730;1.626;2024-01-30T04:55:48;101333.78;;;10.54;85.96
84108;BME280;74203;50.730;1.626;2024-01-30T04:57:56;101329.63;;;10.66;85.69
84108;BME280;74203;50.730;1.626;2024-01-30T05:00:03;101337.97;;;10.56;85.64
84108;BME280;74203;50.730;1.626;2024-01-30T05:02:11;101336.19;;;10.49;86.00
84108;BME280;74203;50.730;1.626;2024-01-30T05:04:18;101344.84;;;10.44;86.04
84108;BME280;74203;50.730;1.626;2024-01-30T05:06:29;101333.84;;;10.31;86.37
84108;BME280;74203;50.730;1.626;2024-01-30T05:08:37;101341.00;;;10.24;86.01
84108;BME280;74203;50.730;1.626;2024-01-30T05:10:44;101339.44;;;10.21;85.95
84108;BME280;74203;50.730;1.626;2024-01-30T05:12:51;101345.37;;;10.25;85.84
84108;BME280;74203;50.730;1.626;2024-01-30T05:14:59;101349.56;;;10.04;85.87
84108;BME280;74203;50.730;1.626;2024-01-30T05:17:06;101356.50;;;9.99;86.12
84108;BME280;74203;50.730;1.626;2024-01-30T05:19:14;101350.59;;;9.95;86.12
84108;BME280;74203;50.730;1.626;2024-01-30T05:21:21;101357.22;;;9.93;85.67
84108;BME280;74203;50.730;1.626;2024-01-30T05:23:28;101355.41;;;9.85;85.69
84108;BME280;74203;50.730;1.626;2024-01-30T05:25:36;101363.69;;;9.83;85.14
84108;BME280;74203;50.730;1.626;2024-01-30T05:27:43;101362.97;;;9.90;84.18
84108;BME280;74203;50.730;1.626;2024-01-30T05:29:50;101360.19;;;9.75;84.51
84108;BME280;74203;50.730;1.626;2024-01-30T05:31:58;101364.03;;;9.80;84.14
84108;BME280;74203;50.730;1.626;2024-01-30T05:34:05;101363.56;;;9.77;84.21
84108;BME280;74203;50.730;1.626;2024-01-30T05:36:14;101358.56;;;9.66;84.36
84108;BME280;74203;50.730;1.626;2024-01-30T05:38:21;101379.13;;;9.67;84.33
84108;BME280;74203;50.730;1.626;2024-01-30T05:40:28;101385.34;;;9.67;84.34
84108;BME280;74203;50.730;1.626;2024-01-30T05:42:36;101379.53;;;9.55;84.02
84108;BME280;74203;50.730;1.626;2024-01-30T05:44:43;101362.16;;;9.58;83.98
84108;BME280;74203;50.730;1.626;2024-01-30T05:46:50;101380.06;;;9.51;83.83
84108;BME280;74203;50.730;1.626;2024-01-30T05:48:58;101390.59;;;9.61;83.52
84108;BME280;74203;50.730;1.626;2024-01-30T05:51:06;101381.72;;;9.52;83.77
84108;BME280;74203;50.730;1.626;2024-01-30T05:53:13;101393.47;;;9.59;83.49
84108;BME280;74203;50.730;1.626;2024-01-30T05:55:21;101389.78;;;9.60;83.50
84108;BME280;74203;50.730;1.626;2024-01-30T05:57:28;101381.12;;;9.42;83.88
84108;BME280;74203;50.730;1.626;2024-01-30T05:59:36;101387.13;;;9.52;83.85
84108;BME280;74203;50.730;1.626;2024-01-30T06:01:50;101391.53;;;9.45;83.80
84108;BME280;74203;50.730;1.626;2024-01-30T06:03:57;101396.28;;;9.35;84.17
84108;BME280;74203;50.730;1.626;2024-01-30T06:06:05;101378.09;;;9.37;84.09
84108;BME280;74203;50.730;1.626;2024-01-30T06:08:12;101387.81;;;9.46;84.18
84108;BME280;74203;50.730;1.626;2024-01-30T06:10:20;101391.53;;;9.45;84.27
84108;BME280;74203;50.730;1.626;2024-01-30T06:12:27;101386.97;;;9.45;84.39
84108;BME280;74203;50.730;1.626;2024-01-30T06:14:34;101391.03;;;9.41;84.10
84108;BME280;74203;50.730;1.626;2024-01-30T06:16:42;101395.28;;;9.36;84.04
84108;BME280;74203;50.730;1.626;2024-01-30T06:18:49;101397.94;;;9.44;83.82
84108;BME280;74203;50.730;1.626;2024-01-30T06:20:57;101421.22;;;9.37;83.76
84108;BME280;74203;50.730;1.626;2024-01-30T06:23:04;101409.09;;;9.33;83.54
84108;BME280;74203;50.730;1.626;2024-01-30T06:25:12;101409.78;;;9.26;83.68
84108;BME280;74203;50.730;1.626;2024-01-30T06:27:20;101412.13;;;9.38;83.23
84108;BME280;74203;50.730;1.626;2024-01-30T06:29:28;101398.88;;;9.28;83.46
84108;BME280;74203;50.730;1.626;2024-01-30T06:31:42;101408.78;;;9.36;83.59
84108;BME280;74203;50.730;1.626;2024-01-30T06:33:51;101406.06;;;9.36;82.67
84108;BME280;74203;50.730;1.626;2024-01-30T06:35:59;101413.09;;;9.45;82.75
84108;BME280;74203;50.730;1.626;2024-01-30T06:38:06;101419.31;;;9.45;82.40
84108;BME280;74203;50.730;1.626;2024-01-30T06:40:14;101427.31;;;9.30;83.38
84108;BME280;74203;50.730;1.626;2024-01-30T06:42:22;101415.88;;;9.28;83.85
84108;BME280;74203;50.730;1.626;2024-01-30T06:44:29;101414.88;;;9.21;84.21
84108;BME280;74203;50.730;1.626;2024-01-30T06:46:37;101419.25;;;9.22;85.48
84108;BME280;74203;50.730;1.626;2024-01-30T06:48:45;101432.56;;;9.16;85.99
84108;BME280;74203;50.730;1.626;2024-01-30T06:50:53;101421.62;;;9.17;86.07
84108;BME280;74203;50.730;1.626;2024-01-30T06:53:00;101419.59;;;9.19;86.49
84108;BME280;74203;50.730;1.626;2024-01-30T06:55:09;101434.13;;;9.02;87.79
84108;BME280;74203;50.730;1.626;2024-01-30T06:57:16;101425.69;;;9.05;88.44
84108;BME280;74203;50.730;1.626;2024-01-30T06:59:24;101428.06;;;9.08;88.27
84108;BME280;74203;50.730;1.626;2024-01-30T07:01:32;101431.44;;;9.02;88.80
84108;BME280;74203;50.730;1.626;2024-01-30T07:03:40;101439.34;;;9.03;88.32
84108;BME280;74203;50.730;1.626;2024-01-30T07:05:47;101441.34;;;8.93;88.48
84108;BME280;74203;50.730;1.626;2024-01-30T07:07:55;101435.81;;;8.87;88.13
84108;BME280;74203;50.730;1.626;2024-01-30T07:10:02;101443.41;;;8.91;88.10
84108;BME280;74203;50.730;1.626;2024-01-30T07:12:10;101446.25;;;8.90;87.74
84108;BME280;74203;50.730;1.626;2024-01-30T07:14:17;101450.97;;;8.96;87.33
84108;BME280;74203;50.730;1.626;2024-01-30T07:16:25;101457.34;;;9.03;86.63
84108;BME280;74203;50.730;1.626;2024-01-30T07:18:33;101474.34;;;9.03;85.81
84108;BME280;74203;50.730;1.626;2024-01-30T07:20:40;101485.13;;;9.03;86.01
84108;BME280;74203;50.730;1.626;2024-01-30T07:22:48;101469.44;;;9.07;85.26
84108;BME280;74203;50.730;1.626;2024-01-30T07:24:55;101465.06;;;9.06;85.37
84108;BME280;74203;50.730;1.626;2024-01-30T07:27:03;101477.53;;;9.15;84.91
84108;BME280;74203;50.730;1.626;2024-01-30T07:29:10;101476.88;;;9.05;84.72
84108;BME280;74203;50.730;1.626;2024-01-30T07:31:18;101477.22;;;9.02;84.77
84108;BME280;74203;50.730;1.626;2024-01-30T07:33:25;101486.66;;;8.90;85.64
84108;BME280;74203;50.730;1.626;2024-01-30T07:35:32;101492.38;;;9.03;85.18
84108;BME280;74203;50.730;1.626;2024-01-30T07:37:40;101495.91;;;9.03;84.69
84108;BME280;74203;50.730;1.626;2024-01-30T07:39:47;101501.31;;;8.95;85.40
84108;BME280;74203;50.730;1.626;2024-01-30T07:41:55;101505.50;;;8.90;85.70
84108;BME280;74203;50.730;1.626;2024-01-30T07:44:02;101513.94;;;8.95;86.41
84108;BME280;74203;50.730;1.626;2024-01-30T07:46:09;101508.19;;;8.90;86.14
84108;BME280;74203;50.730;1.626;2024-01-30T07:48:17;101513.59;;;8.82;85.69
84108;BME280;74203;50.730;1.626;2024-01-30T07:50:24;101508.69;;;8.85;85.13
84108;BME280;74203;50.730;1.626;2024-01-30T07:52:31;101511.56;;;8.84;85.04
84108;BME280;74203;50.730;1.626;2024-01-30T07:54:39;101516.28;;;8.90;84.90
84108;BME280;74203;50.730;1.626;2024-01-30T07:56:46;101519.62;;;8.92;84.62
84108;BME280;74203;50.730;1.626;2024-01-30T07:58:53;101524.03;;;8.85;84.33
84108;BME280;74203;50.730;1.626;2024-01-30T08:01:01;101524.03;;;8.85;83.56
84108;BME280;74203;50.730;1.626;2024-01-30T08:03:08;101528.56;;;8.84;83.46
84108;BME280;74203;50.730;1.626;2024-01-30T08:05:16;101535.63;;;8.85;82.93
84108;BME280;74203;50.730;1.626;2024-01-30T08:07:24;101539.84;;;8.88;83.25
84108;BME280;74203;50.730;1.626;2024-01-30T08:09:31;101540.69;;;8.88;82.23
84108;BME280;74203;50.730;1.626;2024-01-30T08:11:39;101550.94;;;8.85;82.27
84108;BME280;74203;50.730;1.626;2024-01-30T08:13:46;101550.28;;;8.91;82.43
84108;BME280;74203;50.730;1.626;2024-01-30T08:15:54;101551.97;;;8.75;83.89
84108;BME280;74203;50.730;1.626;2024-01-30T08:18:01;101564.91;;;8.64;85.75
84108;BME280;74203;50.730;1.626;2024-01-30T08:20:10;101563.41;;;8.69;86.55
84108;BME280;74203;50.730;1.626;2024-01-30T08:22:18;101565.06;;;8.62;87.39
84108;BME280;74203;50.730;1.626;2024-01-30T08:24:26;101566.09;;;8.69;87.02
84108;BME280;74203;50.730;1.626;2024-01-30T08:26:34;101579.72;;;8.76;86.87
84108;BME280;74203;50.730;1.626;2024-01-30T08:28:41;101577.22;;;8.74;86.55
84108;BME280;74203;50.730;1.626;2024-01-30T08:30:48;101575.66;;;8.72;86.67
84108;BME280;74203;50.730;1.626;2024-01-30T08:32:56;101576.53;;;8.81;86.53
84108;BME280;74203;50.730;1.626;2024-01-30T08:35:04;101580.22;;;8.80;86.53
84108;BME280;74203;50.730;1.626;2024-01-30T08:37:12;101592.16;;;8.77;86.05
84108;BME280;74203;50.730;1.626;2024-01-30T08:39:19;101574.84;;;8.96;85.60
84108;BME280;74203;50.730;1.626;2024-01-30T08:41:26;101565.44;;;9.08;85.11
84108;BME280;74203;50.730;1.626;2024-01-30T08:43:34;101568.44;;;9.05;84.81
84108;BME280;74203;50.730;1.626;2024-01-30T08:45:41;101573.19;;;8.95;84.59
84108;BME280;74203;50.730;1.626;2024-01-30T08:47:49;101580.06;;;8.97;84.93
84108;BME280;74203;50.730;1.626;2024-01-30T08:49:56;101593.72;;;8.88;85.09
84108;BME280;74203;50.730;1.626;2024-01-30T08:52:04;101591.69;;;8.90;84.88
84108;BME280;74203;50.730;1.626;2024-01-30T08:54:11;101601.09;;;8.94;84.88
84108;BME280;74203;50.730;1.626;2024-01-30T08:56:18;101610.53;;;8.98;84.99
84108;BME280;74203;50.730;1.626;2024-01-30T08:58:26;101613.53;;;8.87;85.49
84108;BME280;74203;50.730;1.626;2024-01-30T09:00:33;101631.59;;;8.94;85.49
84108;BME280;74203;50.730;1.626;2024-01-30T09:02:40;101625.34;;;8.94;83.98
84108;BME280;74203;50.730;1.626;2024-01-30T09:04:48;101633.41;;;8.94;83.41
84108;BME280;74203;50.730;1.626;2024-01-30T09:06:55;101632.75;;;8.92;83.06
84108;BME280;74203;50.730;1.626;2024-01-30T09:09:02;101632.44;;;8.95;82.72
84108;BME280;74203;50.730;1.626;2024-01-30T09:11:14;101626.53;;;8.99;81.66
84108;BME280;74203;50.730;1.626;2024-01-30T09:13:22;101627.19;;;8.93;81.00
84108;BME280;74203;50.730;1.626;2024-01-30T09:15:29;101638.97;;;8.92;80.38
84108;BME280;74203;50.730;1.626;2024-01-30T09:17:37;101634.72;;;8.73;80.75
84108;BME280;74203;50.730;1.626;2024-01-30T09:19:45;101642.41;;;8.52;81.22
84108;BME280;74203;50.730;1.626;2024-01-30T09:21:52;101651.31;;;8.44;81.15
84108;BME280;74203;50.730;1.626;2024-01-30T09:24:04;101651.13;;;8.46;80.44
84108;BME280;74203;50.730;1.626;2024-01-30T09:26:11;101663.28;;;8.50;79.96
84108;BME280;74203;50.730;1.626;2024-01-30T09:28:19;101665.97;;;8.50;79.39
84108;BME280;74203;50.730;1.626;2024-01-30T09:30:26;101674.00;;;8.42;79.23
84108;BME280;74203;50.730;1.626;2024-01-30T09:32:34;101660.50;;;8.34;78.26
84108;BME280;74203;50.730;1.626;2024-01-30T09:34:41;101666.19;;;8.31;77.90
84108;BME280;74203;50.730;1.626;2024-01-30T09:36:48;101680.31;;;8.33;78.02
84108;BME280;74203;50.730;1.626;2024-01-30T09:38:56;101657.09;;;8.32;78.03
84108;BME280;74203;50.730;1.626;2024-01-30T09:41:08;101668.38;;;8.27;77.76
84108;BME280;74203;50.730;1.626;2024-01-30T09:43:19;101686.03;;;8.30;77.63
84108;BME280;74203;50.730;1.626;2024-01-30T09:45:29;101675.81;;;8.33;76.68
84108;BME280;74203;50.730;1.626;2024-01-30T09:47:42;101674.31;;;8.39;76.35
84108;BME280;74203;50.730;1.626;2024-01-30T09:49:51;101680.41;;;8.41;76.65
84108;BME280;74203;50.730;1.626;2024-01-30T09:51:59;101682.38;;;8.39;76.90
84108;BME280;74203;50.730;1.626;2024-01-30T09:54:09;101682.59;;;8.45;76.27
84108;BME280;74203;50.730;1.626;2024-01-30T09:56:17;101693.91;;;8.57;76.23
84108;BME280;74203;50.730;1.626;2024-01-30T09:58:24;101694.25;;;8.54;75.88
84108;BME280;74203;50.730;1.626;2024-01-30T10:00:31;101711.37;;;8.53;75.55
84108;BME280;74203;50.730;1.626;2024-01-30T10:02:40;101700.78;;;8.52;75.65
84108;BME280;74203;50.730;1.626;2024-01-30T10:04:50;101703.31;;;8.53;75.60
84108;BME280;74203;50.730;1.626;2024-01-30T10:07:01;101708.88;;;8.60;75.81
84108;BME280;74203;50.730;1.626;2024-01-30T10:09:08;101713.75;;;8.56;75.97
84108;BME280;74203;50.730;1.626;2024-01-30T10:11:16;101712.75;;;8.57;76.69
84108;BME280;74203;50.730;1.626;2024-01-30T10:13:23;101713.12;;;8.62;76.31
84108;BME280;74203;50.730;1.626;2024-01-30T10:15:31;101708.78;;;8.69;76.30
84108;BME280;74203;50.730;1.626;2024-01-30T10:17:40;101722.25;;;8.78;75.82
84108;BME280;74203;50.730;1.626;2024-01-30T10:19:47;101723.09;;;8.78;76.12
84108;BME280;74203;50.730;1.626;2024-01-30T10:21:54;101728.44;;;8.62;75.99
84108;BME280;74203;50.730;1.626;2024-01-30T10:24:02;101738.66;;;8.58;76.40
84108;BME280;74203;50.730;1.626;2024-01-30T10:26:10;101731.94;;;8.54;76.17
84108;BME280;74203;50.730;1.626;2024-01-30T10:28:17;101726.22;;;8.57;76.52
84108;BME280;74203;50.730;1.626;2024-01-30T10:30:27;101734.97;;;8.59;76.46
84108;BME280;74203;50.730;1.626;2024-01-30T10:32:34;101747.78;;;8.65;76.47
84108;BME280;74203;50.730;1.626;2024-01-30T10:34:42;101737.63;;;8.51;76.06
84108;BME280;74203;50.730;1.626;2024-01-30T10:36:54;101737.50;;;8.61;76.41
84108;BME280;74203;50.730;1.626;2024-01-30T10:39:07;101734.66;;;8.62;76.49
84108;BME280;74203;50.730;1.626;2024-01-30T10:41:15;101741.38;;;8.66;76.37
84108;BME280;74203;50.730;1.626;2024-01-30T10:43:30;101749.63;;;8.65;76.36
84108;BME280;74203;50.730;1.626;2024-01-30T10:45:41;101753.69;;;8.69;76.42
84108;BME280;74203;50.730;1.626;2024-01-30T10:47:54;101762.13;;;8.74;76.72
84108;BME280;74203;50.730;1.626;2024-01-30T10:50:02;101762.47;;;8.79;76.33
84108;BME280;74203;50.730;1.626;2024-01-30T10:52:11;101763.47;;;8.70;76.62
84108;BME280;74203;50.730;1.626;2024-01-30T10:54:22;101774.06;;;8.71;76.71
84108;BME280;74203;50.730;1.626;2024-01-30T10:56:32;101763.75;;;8.67;77.14
84108;BME280;74203;50.730;1.626;2024-01-30T10:58:39;101770.00;;;8.67;76.81
84108;BME280;74203;50.730;1.626;2024-01-30T11:00:47;101777.38;;;8.65;77.05
84108;BME280;74203;50.730;1.626;2024-01-30T11:02:57;101772.72;;;8.67;77.39
84108;BME280;74203;50.730;1.626;2024-01-30T11:05:07;101771.69;;;8.68;77.48
84108;BME280;74203;50.730;1.626;2024-01-30T11:07:25;101771.06;;;8.74;77.17
84108;BME280;74203;50.730;1.626;2024-01-30T11:09:39;101775.78;;;8.81;77.42
84108;BME280;74203;50.730;1.626;2024-01-30T11:11:55;101780.19;;;8.82;77.31
84108;BME280;74203;50.730;1.626;2024-01-30T11:14:05;101789.91;;;8.74;77.70